createdAt,value
2022-12-18T00:01:27.316Z,67.50
2022-12-18T00:03:56.379Z,66.40
2022-12-18T00:08:53.326Z,64.60
2022-12-18T00:11:22.950Z,58.40
2022-12-18T00:13:51.157Z,65.00
2022-12-18T00:16:21.395Z,58.00
2022-12-18T00:18:50.361Z,58.60
2022-12-18T00:21:19.351Z,52.00
2022-12-18T00:23:48.383Z,46.70
2022-12-18T00:26:24.247Z,43.90
2022-12-18T00:28:53.511Z,46.70
2022-12-18T00:31:24.360Z,63.50
2022-12-18T00:33:56.211Z,60.10
2022-12-18T00:36:27.461Z,62.70
2022-12-18T00:38:56.905Z,60.20
2022-12-18T00:44:13.904Z,51.80
2022-12-18T00:46:43.003Z,62.60
2022-12-18T00:49:10.623Z,60.40
2022-12-18T00:51:38.221Z,57.40
2022-12-18T00:54:05.812Z,71.50
2022-12-18T00:56:33.121Z,59.60
2022-12-18T00:59:00.605Z,60.30
2022-12-18T01:01:28.789Z,55.70
2022-12-18T01:03:56.384Z,58.00
2022-12-18T01:06:24.195Z,59.70
2022-12-18T01:08:51.834Z,51.80
2022-12-18T01:11:20.857Z,55.10
2022-12-18T01:16:18.139Z,54.10
2022-12-18T01:18:45.813Z,53.20
2022-12-18T01:21:16.652Z,53.70
2022-12-18T01:23:44.006Z,51.00
2022-12-18T01:26:16.620Z,51.30
2022-12-18T01:28:45.129Z,58.00
2022-12-18T01:31:21.711Z,152.80
2022-12-18T01:33:50.346Z,53.70
2022-12-18T01:36:22.566Z,48.40
2022-12-18T01:38:51.648Z,54.20
2022-12-18T01:41:49.456Z,58.20
2022-12-18T01:44:58.265Z,58.90
2022-12-18T01:47:39.619Z,53.80
2022-12-18T01:50:14.058Z,47.80
2022-12-18T01:52:44.219Z,80.80
2022-12-18T01:57:42.393Z,46.80
2022-12-18T02:00:16.739Z,55.10
2022-12-18T02:02:46.693Z,58.60
2022-12-18T02:05:24.206Z,49.90
2022-12-18T02:07:57.617Z,57.00
2022-12-18T02:10:31.325Z,49.10
2022-12-18T02:13:21.578Z,52.60
2022-12-18T02:16:04.264Z,55.70
2022-12-18T02:18:38.579Z,51.40
2022-12-18T02:21:16.501Z,58.60
2022-12-18T02:23:52.080Z,80.40
2022-12-18T02:26:42.002Z,65.30
2022-12-18T02:29:15.688Z,46.50
2022-12-18T02:31:50.599Z,47.70
2022-12-18T02:34:20.801Z,45.10
2022-12-18T02:36:50.440Z,57.90
2022-12-18T02:39:21.500Z,111.10
2022-12-18T02:42:00.344Z,80.20
2022-12-18T02:44:27.581Z,38.90
2022-12-18T02:46:55.432Z,50.90
2022-12-18T02:49:32.241Z,53.10
2022-12-18T02:52:10.390Z,59.90
2022-12-18T02:54:48.728Z,75.60
2022-12-18T02:57:49.380Z,61.30
2022-12-18T03:00:32.746Z,44.90
2022-12-18T03:03:20.634Z,47.50
2022-12-18T03:05:57.057Z,44.80
2022-12-18T03:08:39.846Z,49.80
2022-12-18T03:11:11.071Z,54.20
2022-12-18T03:13:51.515Z,57.30
2022-12-18T03:16:26.994Z,96.90
2022-12-18T03:19:08.867Z,77.40
2022-12-18T03:21:43.691Z,56.40
2022-12-18T03:24:11.915Z,60.80
2022-12-18T03:26:44.956Z,86.50
2022-12-18T03:29:19.510Z,67.60
2022-12-18T03:31:52.845Z,66.40
2022-12-18T03:34:31.898Z,63.00
2022-12-18T03:37:03.926Z,62.20
2022-12-18T03:39:33.302Z,62.50
2022-12-18T03:42:03.671Z,62.60
2022-12-18T03:44:53.450Z,60.50
2022-12-18T03:47:40.624Z,51.60
2022-12-18T03:50:17.874Z,46.50
2022-12-18T03:52:55.616Z,53.30
2022-12-18T03:55:27.100Z,51.10
2022-12-18T03:58:00.437Z,53.50
2022-12-18T04:00:32.582Z,55.50
2022-12-18T04:03:06.342Z,54.80
2022-12-18T04:05:44.464Z,54.10
2022-12-18T04:08:12.688Z,61.70
2022-12-18T04:10:43.167Z,66.40
2022-12-18T04:13:11.003Z,58.90
2022-12-18T04:15:39.503Z,55.40
2022-12-18T04:18:08.658Z,55.30
2022-12-18T04:20:41.355Z,52.00
2022-12-18T04:23:09.221Z,61.30
2022-12-18T04:25:37.381Z,67.40
2022-12-18T04:28:12.123Z,57.20
2022-12-18T04:30:39.656Z,56.60
2022-12-18T04:33:11.765Z,50.10
2022-12-18T04:35:41.046Z,55.60
2022-12-18T04:38:11.887Z,93.80
2022-12-18T04:40:39.594Z,64.50
2022-12-18T04:43:13.321Z,53.60
2022-12-18T04:45:40.778Z,57.00
2022-12-18T04:48:07.940Z,54.30
2022-12-18T04:50:35.841Z,83.50
2022-12-18T04:53:03.002Z,81.00
2022-12-18T04:55:30.352Z,69.40
2022-12-18T04:57:58.325Z,65.60
2022-12-18T05:00:25.531Z,61.10
2022-12-18T05:02:53.138Z,65.70
2022-12-18T05:05:21.108Z,66.90
2022-12-18T05:07:48.320Z,66.00
2022-12-18T05:10:15.548Z,59.40
2022-12-18T05:12:58.753Z,64.10
2022-12-18T05:15:30.848Z,61.90
2022-12-18T05:17:59.362Z,65.00
2022-12-18T05:20:28.077Z,64.60
2022-12-18T05:22:55.965Z,71.80
2022-12-18T05:25:24.359Z,68.50
2022-12-18T05:27:52.302Z,76.90
2022-12-18T05:30:19.577Z,73.90
2022-12-18T05:32:47.161Z,63.80
2022-12-18T05:35:15.075Z,60.20
2022-12-18T05:37:43.455Z,65.20
2022-12-18T05:40:11.805Z,62.70
2022-12-18T05:42:39.530Z,58.40
2022-12-18T05:45:07.280Z,58.60
2022-12-18T05:47:35.621Z,64.60
2022-12-18T05:50:03.485Z,147.80
2022-12-18T05:52:31.469Z,100.90
2022-12-18T05:54:59.672Z,97.00
2022-12-18T05:57:27.687Z,146.80
2022-12-18T05:59:56.270Z,110.20
2022-12-18T06:02:23.804Z,139.20
2022-12-18T06:04:51.475Z,181.80
2022-12-18T06:07:18.795Z,272.20
2022-12-18T06:09:46.454Z,380.70
2022-12-18T06:12:14.822Z,370.70
2022-12-18T06:14:42.051Z,528.60
2022-12-18T06:17:09.546Z,444.20
2022-12-18T06:19:37.754Z,293.70
2022-12-18T06:22:04.886Z,227.90
2022-12-18T06:24:33.695Z,438.90
2022-12-18T06:27:01.453Z,463.70
2022-12-18T06:29:28.747Z,382.00
2022-12-18T06:31:56.267Z,374.90
2022-12-18T06:34:23.746Z,207.90
2022-12-18T06:36:51.141Z,277.70
2022-12-18T06:39:18.598Z,339.30
2022-12-18T06:41:45.943Z,292.30
2022-12-18T06:44:13.151Z,156.30
2022-12-18T06:46:41.385Z,181.90
2022-12-18T06:49:10.492Z,110.80
2022-12-18T06:51:37.886Z,134.50
2022-12-18T06:54:05.795Z,133.20
2022-12-18T06:56:33.391Z,108.90
2022-12-18T06:59:00.668Z,110.70
2022-12-18T07:01:28.567Z,84.50
2022-12-18T07:03:57.745Z,91.30
2022-12-18T07:06:26.539Z,77.90
2022-12-18T07:08:54.773Z,73.00
2022-12-18T07:11:22.659Z,78.50
2022-12-18T07:13:49.804Z,86.20
2022-12-18T07:16:24.723Z,113.80
2022-12-18T07:18:55.655Z,131.00
2022-12-18T07:21:24.775Z,130.50
2022-12-18T07:23:52.554Z,129.00
2022-12-18T07:26:21.861Z,143.70
2022-12-18T07:28:50.420Z,158.10
2022-12-18T07:31:21.598Z,136.80
2022-12-18T07:33:50.544Z,155.00
2022-12-18T07:36:19.352Z,153.20
2022-12-18T07:38:51.199Z,126.00
2022-12-18T07:41:19.263Z,147.80
2022-12-18T07:43:47.171Z,115.50
2022-12-18T07:46:15.705Z,132.30
2022-12-18T07:48:44.276Z,132.60
2022-12-18T07:51:14.324Z,114.00
2022-12-18T07:53:43.309Z,94.80
2022-12-18T07:56:29.547Z,90.30
2022-12-18T07:58:58.759Z,79.30
2022-12-18T08:01:26.286Z,87.30
2022-12-18T08:03:53.866Z,89.10
2022-12-18T08:06:22.562Z,87.20
2022-12-18T08:08:53.209Z,82.40
2022-12-18T08:11:20.510Z,77.70
2022-12-18T08:13:49.194Z,93.30
2022-12-18T08:16:17.170Z,98.00
2022-12-18T08:18:44.774Z,104.00
2022-12-18T08:21:19.107Z,87.40
2022-12-18T08:23:50.416Z,81.90
2022-12-18T08:26:19.636Z,82.30
2022-12-18T08:28:48.682Z,79.20
2022-12-18T08:31:17.762Z,85.60
2022-12-18T08:33:45.583Z,105.50
2022-12-18T08:36:13.206Z,111.50
2022-12-18T08:38:40.605Z,118.00
2022-12-18T08:41:11.997Z,160.50
2022-12-18T08:43:59.136Z,150.50
2022-12-18T08:46:28.894Z,139.90
2022-12-18T08:48:56.791Z,106.30
2022-12-18T08:51:24.472Z,119.20
2022-12-18T08:53:52.508Z,119.80
2022-12-18T08:56:19.801Z,109.60
2022-12-18T08:59:00.370Z,96.70
2022-12-18T09:01:37.923Z,130.00
2022-12-18T09:04:11.153Z,127.00
2022-12-18T09:06:39.214Z,208.90
2022-12-18T09:09:07.174Z,164.60
2022-12-18T09:11:34.669Z,141.20
2022-12-18T09:14:02.517Z,135.70
2022-12-18T09:16:32.225Z,123.60
2022-12-18T09:19:01.060Z,122.70
2022-12-18T09:21:35.928Z,130.00
2022-12-18T09:24:07.319Z,127.70
2022-12-18T09:26:37.288Z,110.10
2022-12-18T09:29:04.925Z,113.50
2022-12-18T09:31:32.238Z,108.80
2022-12-18T09:34:00.084Z,109.60
2022-12-18T09:36:27.383Z,105.80
2022-12-18T09:38:55.431Z,108.10
2022-12-18T09:41:22.994Z,133.10
2022-12-18T09:43:54.919Z,131.10
2022-12-18T09:46:34.589Z,121.80
2022-12-18T09:49:05.909Z,114.90
2022-12-18T09:51:43.029Z,123.20
2022-12-18T09:54:21.336Z,118.00
2022-12-18T09:56:49.129Z,93.70
2022-12-18T09:59:37.495Z,97.30
2022-12-18T10:02:33.961Z,101.10
2022-12-18T10:05:09.598Z,100.30
2022-12-18T10:07:47.250Z,106.90
2022-12-18T10:10:27.371Z,103.20
2022-12-18T10:15:41.307Z,86.10
2022-12-18T10:18:27.435Z,93.40
2022-12-18T10:21:24.103Z,96.40
2022-12-18T10:24:19.059Z,93.50
2022-12-18T10:26:48.446Z,94.80
2022-12-18T10:29:16.921Z,73.20
2022-12-18T10:31:44.361Z,95.30
2022-12-18T10:34:14.932Z,97.30
2022-12-18T10:36:43.011Z,96.80
2022-12-18T10:39:37.635Z,118.10
2022-12-18T10:42:17.720Z,93.00
2022-12-18T10:44:45.645Z,94.20
2022-12-18T10:47:19.565Z,86.70
2022-12-18T10:49:53.522Z,93.00
2022-12-18T10:52:26.928Z,91.40
2022-12-18T10:55:06.087Z,96.00
2022-12-18T10:57:37.567Z,100.10
2022-12-18T11:00:29.254Z,95.60
2022-12-18T11:02:57.627Z,89.30
2022-12-18T11:05:31.761Z,90.30
2022-12-18T11:08:01.067Z,90.60
2022-12-18T11:10:38.551Z,63.70
2022-12-18T11:13:18.309Z,74.20
2022-12-18T11:15:46.495Z,59.80
2022-12-18T11:18:26.900Z,85.40
2022-12-18T11:21:15.533Z,87.50
2022-12-18T11:23:54.899Z,101.10
2022-12-18T11:26:35.433Z,81.90
2022-12-18T11:29:11.590Z,100.70
2022-12-18T11:31:38.948Z,100.70
2022-12-18T11:34:54.706Z,100.10
2022-12-18T11:37:27.820Z,98.20
2022-12-18T11:40:00.500Z,89.80
2022-12-18T11:42:43.569Z,93.80
2022-12-18T11:45:14.244Z,78.60
2022-12-18T11:47:45.464Z,87.10
2022-12-18T11:50:32.629Z,89.00
2022-12-18T11:53:05.645Z,87.40
2022-12-18T11:55:52.672Z,78.10
2022-12-18T11:58:47.614Z,105.40
2022-12-18T12:01:56.996Z,102.40
2022-12-18T12:04:34.934Z,80.60
2022-12-18T12:07:05.678Z,122.00
2022-12-18T12:09:52.268Z,115.30
2022-12-18T12:12:49.539Z,101.90
2022-12-18T12:15:29.999Z,84.70
2022-12-18T12:18:11.475Z,84.50
2022-12-18T12:21:05.545Z,101.70
2022-12-18T12:23:55.869Z,89.00
2022-12-18T12:26:26.120Z,83.80
2022-12-18T12:29:22.903Z,95.20
2022-12-18T12:32:15.646Z,84.70
2022-12-18T12:35:00.831Z,78.60
2022-12-18T12:37:45.283Z,89.90
2022-12-18T12:40:49.293Z,87.80
2022-12-18T12:43:22.362Z,83.80
2022-12-18T12:46:11.250Z,87.90
2022-12-18T12:48:47.402Z,84.60
2022-12-18T12:51:20.082Z,91.70
2022-12-18T12:53:49.888Z,87.80
2022-12-18T12:56:20.431Z,78.30
2022-12-18T12:58:57.265Z,68.30
2022-12-18T13:01:37.089Z,74.30
2022-12-18T13:04:23.125Z,76.90
2022-12-18T13:07:03.009Z,73.70
2022-12-18T13:12:30.510Z,83.30
2022-12-18T13:17:49.727Z,84.70
2022-12-18T13:20:17.289Z,86.70
2022-12-18T13:22:49.976Z,78.70
2022-12-18T13:25:38.043Z,85.60
2022-12-18T13:28:16.136Z,73.30
2022-12-18T13:30:57.493Z,94.30
2022-12-18T13:33:51.020Z,82.90
2022-12-18T13:36:34.810Z,80.20
2022-12-18T13:39:19.695Z,84.40
2022-12-18T13:41:53.542Z,88.90
2022-12-18T13:44:40.027Z,94.70
2022-12-18T13:47:32.986Z,89.70
2022-12-18T13:50:10.990Z,76.90
2022-12-18T13:52:40.701Z,89.00
2022-12-18T13:55:17.908Z,157.40
2022-12-18T13:57:45.657Z,119.10
2022-12-18T14:00:26.862Z,91.90
2022-12-18T14:05:24.405Z,91.50
2022-12-18T14:07:54.531Z,98.50
2022-12-18T14:10:44.410Z,93.80
2022-12-18T14:13:25.479Z,121.40
2022-12-18T14:15:54.436Z,101.60
2022-12-18T14:18:57.564Z,92.60
2022-12-18T14:21:38.798Z,88.70
2022-12-18T14:24:23.204Z,105.20
2022-12-18T14:26:51.653Z,91.60
2022-12-18T14:29:31.864Z,94.60
2022-12-18T14:32:18.681Z,104.40
2022-12-18T14:34:51.043Z,111.40
2022-12-18T14:37:26.439Z,116.80
2022-12-18T14:40:02.188Z,134.30
2022-12-18T14:42:32.652Z,129.30
2022-12-18T14:45:42.404Z,137.50
2022-12-18T14:48:22.942Z,127.70
2022-12-18T14:51:03.423Z,108.30
2022-12-18T14:56:02.881Z,98.30
2022-12-18T14:58:30.598Z,90.70
2022-12-18T15:00:58.514Z,82.60
2022-12-18T15:03:26.213Z,89.10
2022-12-18T15:05:54.675Z,90.00
2022-12-18T15:08:35.882Z,93.40
2022-12-18T15:11:06.602Z,94.20
2022-12-18T15:13:36.725Z,91.10
2022-12-18T15:16:04.229Z,92.50
2022-12-18T15:18:36.269Z,91.30
2022-12-18T15:21:15.215Z,92.50
2022-12-18T15:23:46.153Z,94.50
2022-12-18T15:26:16.693Z,99.60
2022-12-18T15:28:50.922Z,95.10
2022-12-18T15:31:30.054Z,99.80
2022-12-18T15:33:59.922Z,107.20
2022-12-18T15:36:30.972Z,113.10
2022-12-18T15:39:05.071Z,105.40
2022-12-18T15:41:36.527Z,109.70
2022-12-18T15:44:22.999Z,112.50
2022-12-18T15:46:50.922Z,113.60
2022-12-18T15:49:18.231Z,121.60
2022-12-18T15:51:49.497Z,130.10
2022-12-18T15:54:17.809Z,125.50
2022-12-18T15:57:03.463Z,108.60
2022-12-18T15:59:30.934Z,111.70
2022-12-18T16:01:58.562Z,113.00
2022-12-18T16:04:26.333Z,111.40
2022-12-18T16:09:41.368Z,119.00
2022-12-18T16:12:21.741Z,130.90
2022-12-18T16:14:49.465Z,124.90
2022-12-18T16:17:17.086Z,131.90
2022-12-18T16:19:44.876Z,129.50
2022-12-18T16:22:20.513Z,115.20
2022-12-18T16:24:48.977Z,121.20
2022-12-18T16:27:16.676Z,112.40
2022-12-18T16:29:44.241Z,112.40
2022-12-18T16:32:18.171Z,113.80
2022-12-18T16:34:45.995Z,109.50
2022-12-18T16:37:15.396Z,115.20
2022-12-18T16:39:43.183Z,116.10
2022-12-18T16:42:19.572Z,106.80
2022-12-18T16:44:48.892Z,104.80
2022-12-18T16:47:17.189Z,108.90
2022-12-18T16:49:46.068Z,112.90
2022-12-18T16:52:14.409Z,105.70
2022-12-18T16:54:41.783Z,107.50
2022-12-18T16:57:16.712Z,118.80
2022-12-18T16:59:44.406Z,127.30
2022-12-18T17:02:23.423Z,112.70
2022-12-18T17:04:57.013Z,114.50
2022-12-18T17:07:25.864Z,132.00
2022-12-18T17:09:54.391Z,120.00
2022-12-18T17:12:22.484Z,128.50
2022-12-18T17:14:50.025Z,121.10
2022-12-18T17:17:21.792Z,125.90
2022-12-18T17:19:50.066Z,128.10
2022-12-18T17:22:18.145Z,125.10
2022-12-18T17:24:50.099Z,122.70
2022-12-18T17:27:17.778Z,133.40
2022-12-18T17:29:48.264Z,127.90
2022-12-18T17:32:17.865Z,120.30
2022-12-18T17:34:46.113Z,96.40
2022-12-18T17:37:14.098Z,109.40
2022-12-18T17:39:44.540Z,116.60
2022-12-18T17:42:15.350Z,126.30
2022-12-18T17:44:44.471Z,123.80
2022-12-18T17:47:13.629Z,112.20
2022-12-18T17:49:40.950Z,99.40
2022-12-18T17:52:08.551Z,112.90
2022-12-18T17:54:39.191Z,105.90
2022-12-18T17:57:06.396Z,101.20
2022-12-18T17:59:34.848Z,109.60
2022-12-18T18:02:02.216Z,104.60
2022-12-18T18:04:40.812Z,110.20
2022-12-18T18:07:37.545Z,110.50
2022-12-18T18:10:22.589Z,115.90
2022-12-18T18:16:43.081Z,105.20
2022-12-18T18:19:37.867Z,118.00
2022-12-18T18:22:38.641Z,135.00
2022-12-18T18:25:28.115Z,139.20
2022-12-18T18:28:26.995Z,131.40
2022-12-18T18:31:19.966Z,144.10
2022-12-18T18:34:15.963Z,145.10
2022-12-18T18:37:17.677Z,136.00
2022-12-18T18:40:07.899Z,141.10
2022-12-18T18:43:01.828Z,137.00
2022-12-18T18:45:39.459Z,123.20
2022-12-18T18:48:14.453Z,129.90
2022-12-18T18:50:45.375Z,128.30
2022-12-18T18:53:12.697Z,133.60
2022-12-18T18:55:41.139Z,129.70
2022-12-18T18:58:08.602Z,156.70
2022-12-18T19:00:36.218Z,156.90
2022-12-18T19:03:04.386Z,146.00
2022-12-18T19:05:33.688Z,135.60
2022-12-18T19:08:00.994Z,153.90
2022-12-18T19:10:29.193Z,141.80
2022-12-18T19:13:15.963Z,144.00
2022-12-18T19:15:45.759Z,157.50
2022-12-18T19:18:13.501Z,138.70
2022-12-18T19:20:41.521Z,139.00
2022-12-18T19:23:09.740Z,138.40
2022-12-18T19:25:41.653Z,140.80
2022-12-18T19:28:21.945Z,129.00
2022-12-18T19:30:58.576Z,120.40
2022-12-18T19:33:44.598Z,131.10
2022-12-18T19:36:20.811Z,123.70
2022-12-18T19:38:50.176Z,110.70
2022-12-18T19:41:18.861Z,117.00
2022-12-18T19:43:47.892Z,94.80
2022-12-18T19:46:17.942Z,121.40
2022-12-18T19:48:46.733Z,114.40
2022-12-18T19:51:18.550Z,140.90
2022-12-18T19:53:46.993Z,138.50
2022-12-18T19:56:17.004Z,157.50
2022-12-18T19:58:45.209Z,164.60
2022-12-18T20:01:20.462Z,139.20
2022-12-18T20:03:52.433Z,127.40
2022-12-18T20:06:27.658Z,117.10
2022-12-18T20:09:00.050Z,114.90
2022-12-18T20:11:29.956Z,116.40
2022-12-18T20:13:57.964Z,116.10
2022-12-18T20:16:25.323Z,128.10
2022-12-18T20:18:55.769Z,127.60
2022-12-18T20:21:23.833Z,123.80
2022-12-18T20:23:51.500Z,125.70
2022-12-18T20:26:19.424Z,127.20
2022-12-18T20:28:47.520Z,128.30
2022-12-18T20:31:14.893Z,131.20
2022-12-18T20:33:43.129Z,135.50
2022-12-18T20:36:21.278Z,122.50
2022-12-18T20:38:56.960Z,124.70
2022-12-18T20:41:25.401Z,125.00
2022-12-18T20:43:52.622Z,129.80
2022-12-18T20:46:20.477Z,133.60
2022-12-18T20:48:48.628Z,135.20
2022-12-18T20:51:21.078Z,117.70
2022-12-18T20:53:48.562Z,122.50
2022-12-18T20:56:21.184Z,122.10
2022-12-18T20:58:51.336Z,134.10
2022-12-18T21:01:24.194Z,139.90
2022-12-18T21:03:52.545Z,135.80
2022-12-18T21:06:22.062Z,133.70
2022-12-18T21:11:38.826Z,151.60
2022-12-18T21:14:13.503Z,144.40
2022-12-18T21:16:43.671Z,147.60
2022-12-18T21:19:12.792Z,138.10
2022-12-18T21:21:41.426Z,136.10
2022-12-18T21:24:09.948Z,144.10
2022-12-18T21:26:44.829Z,112.80
2022-12-18T21:29:16.530Z,115.70
2022-12-18T21:31:45.000Z,118.70
2022-12-18T21:34:20.017Z,118.20
2022-12-18T21:36:48.332Z,119.10
2022-12-18T21:39:15.918Z,113.10
2022-12-18T21:42:03.104Z,110.10
2022-12-18T21:44:31.540Z,109.30
2022-12-18T21:47:13.751Z,109.00
2022-12-18T21:49:52.580Z,105.40
2022-12-18T21:52:31.582Z,104.50
2022-12-18T21:55:09.521Z,102.60
2022-12-18T21:57:38.200Z,106.50
2022-12-18T22:00:11.256Z,109.00
2022-12-18T22:02:47.264Z,105.20
2022-12-18T22:05:15.248Z,105.40
2022-12-18T22:07:42.533Z,133.70
2022-12-18T22:10:10.120Z,117.10
2022-12-18T22:12:44.466Z,124.30
2022-12-18T22:15:21.709Z,118.20
2022-12-18T22:17:50.834Z,142.10
2022-12-18T22:20:20.064Z,142.00
2022-12-18T22:22:51.153Z,134.30
2022-12-18T22:25:18.932Z,109.60
2022-12-18T22:28:06.375Z,111.00
2022-12-18T22:30:34.536Z,94.20
2022-12-18T22:33:02.154Z,96.10
2022-12-18T22:35:29.418Z,98.80
2022-12-18T22:38:00.764Z,90.20
2022-12-18T22:40:28.412Z,79.70
2022-12-18T22:42:55.937Z,79.20
2022-12-18T22:45:27.543Z,82.20
2022-12-18T22:47:54.924Z,82.60
2022-12-18T22:50:22.266Z,85.20
2022-12-18T22:52:49.886Z,66.80
2022-12-18T22:55:17.017Z,69.70
2022-12-18T22:57:48.729Z,62.20
2022-12-18T23:00:24.255Z,63.40
2022-12-18T23:03:00.359Z,68.20
2022-12-18T23:05:30.988Z,63.30
2022-12-18T23:07:58.846Z,65.20
2022-12-18T23:10:27.008Z,69.40
2022-12-18T23:12:55.389Z,54.30
2022-12-18T23:15:27.891Z,65.20
2022-12-18T23:17:59.605Z,61.80
2022-12-18T23:20:27.582Z,52.90
2022-12-18T23:22:54.770Z,64.20
2022-12-18T23:25:23.193Z,46.30
2022-12-18T23:27:50.752Z,32.70
2022-12-18T23:30:18.177Z,28.90
2022-12-18T23:32:46.725Z,24.80
2022-12-18T23:35:14.275Z,27.90
2022-12-18T23:38:00.103Z,20.30
2022-12-18T23:40:29.610Z,25.80
2022-12-18T23:42:58.667Z,20.10
2022-12-18T23:45:25.904Z,21.10
2022-12-18T23:47:54.083Z,23.60
2022-12-18T23:50:27.701Z,24.00
2022-12-18T23:53:04.606Z,16.80
2022-12-18T23:55:38.969Z,17.50
2022-12-18T23:58:08.935Z,14.30
